createdAt,value
2022-07-25T12:05:21.431Z,0.59
2022-07-25T12:06:19.946Z,0.70
2022-07-25T12:07:20.317Z,0.73
2022-07-25T12:08:20.474Z,0.70
2022-07-25T12:09:21.001Z,0.70
2022-07-25T12:10:21.942Z,0.73
2022-07-25T12:11:22.410Z,0.84
2022-07-25T12:12:22.628Z,0.91
2022-07-25T12:13:23.640Z,0.98
2022-07-25T12:14:25.840Z,1.12
2022-07-25T12:15:23.946Z,1.16
2022-07-25T12:16:31.049Z,1.16
2022-07-25T12:17:24.861Z,1.69
2022-07-25T12:18:24.985Z,2.69
2022-07-25T12:19:25.426Z,1.12
2022-07-25T12:20:27.624Z,1.34
2022-07-25T12:21:26.029Z,0.91
2022-07-25T12:22:26.923Z,1.59
2022-07-25T12:23:30.195Z,1.69
2022-07-25T12:24:29.170Z,1.16
2022-07-25T12:25:30.995Z,1.62
2022-07-25T12:26:28.562Z,2.12
2022-07-25T12:27:29.978Z,2.44
2022-07-25T12:27:39.724Z,2.01
2022-07-25T12:28:40.308Z,1.55
2022-07-25T12:29:41.603Z,1.59
2022-07-25T12:30:42.571Z,1.12
2022-07-25T12:31:41.724Z,1.69
2022-07-25T12:32:41.678Z,1.27
2022-07-25T12:33:42.493Z,1.27
2022-07-25T12:34:43.471Z,1.41
2022-07-25T12:35:44.432Z,2.83
2022-07-25T12:36:46.380Z,1.84
2022-07-25T12:37:46.456Z,1.44
2022-07-25T12:38:46.365Z,2.80
2022-07-25T12:39:48.665Z,2.73
2022-07-25T12:40:47.300Z,1.41
2022-07-25T12:41:47.771Z,2.41
2022-07-25T12:42:49.375Z,1.69
2022-07-25T12:43:48.532Z,1.20
2022-07-25T12:44:48.851Z,1.02
2022-07-25T12:45:49.501Z,1.02
2022-07-25T12:46:49.821Z,1.09
2022-07-25T12:47:50.443Z,1.12
2022-07-25T12:48:51.499Z,1.16
2022-07-25T12:49:51.693Z,1.27
2022-07-25T12:50:53.012Z,1.34
2022-07-25T12:51:57.904Z,1.80
2022-07-25T12:52:53.487Z,0.95
2022-07-25T12:53:53.809Z,0.80
2022-07-25T12:54:03.685Z,0.95
2022-07-25T12:55:04.316Z,0.91
2022-07-25T12:56:05.093Z,0.98
2022-07-25T12:57:08.011Z,1.02
2022-07-25T12:58:06.388Z,1.20
2022-07-25T12:59:07.258Z,1.09
2022-07-25T13:00:07.742Z,1.12
2022-07-25T13:01:08.399Z,0.98
2022-07-25T13:02:13.297Z,1.12
2022-07-25T13:03:08.561Z,1.09
2022-07-25T13:04:08.759Z,0.84
2022-07-25T13:05:08.995Z,0.88
2022-07-25T13:06:09.619Z,0.88
2022-07-25T13:07:10.887Z,0.98
2022-07-25T13:08:11.054Z,0.66
2022-07-25T13:09:11.614Z,0.73
2022-07-25T13:10:12.293Z,0.55
2022-07-25T13:11:13.013Z,0.73
2022-07-25T13:12:16.393Z,0.80
2022-07-25T13:13:13.449Z,0.77
2022-07-25T13:14:13.892Z,0.91
2022-07-25T13:15:14.635Z,1.37
2022-07-25T13:16:15.455Z,2.83
2022-07-25T13:17:18.180Z,2.83
2022-07-25T20:36:35.384Z,0.09
2022-07-25T20:37:35.525Z,0.09
2022-07-25T20:38:36.110Z,0.09
2022-07-25T20:39:38.359Z,0.09
2022-07-25T20:40:36.161Z,0.09
2022-07-25T20:41:44.696Z,0.09
2022-07-25T20:42:37.052Z,0.09
2022-07-25T20:43:37.511Z,0.09
2022-07-25T20:44:37.638Z,0.09
2022-07-25T20:45:37.873Z,0.09
2022-07-25T20:46:38.351Z,0.09
2022-07-25T20:47:41.179Z,0.09
2022-07-25T20:48:39.698Z,0.09
2022-07-25T20:49:42.479Z,0.09
2022-07-25T20:50:40.223Z,0.09
2022-07-25T20:51:40.581Z,0.09
2022-07-25T20:52:44.320Z,0.09
2022-07-25T20:53:45.138Z,0.09
2022-07-25T20:54:43.433Z,0.09
2022-07-25T20:54:55.392Z,0.09
2022-07-25T20:55:56.366Z,0.09
2022-07-25T20:56:57.195Z,0.09
2022-07-25T20:58:05.119Z,0.09
2022-07-25T20:59:01.028Z,0.09
2022-07-25T20:59:59.116Z,0.09
2022-07-25T21:01:00.314Z,0.09
2022-07-25T21:02:00.359Z,0.09
2022-07-25T21:03:04.029Z,0.09
2022-07-25T21:04:07.304Z,0.09
2022-07-25T21:05:02.579Z,0.09
2022-07-25T21:06:03.511Z,0.09
2022-07-25T21:07:11.006Z,0.09
2022-07-25T21:07:33.034Z,0.09
2022-07-25T21:08:53.479Z,0.09
2022-07-25T21:09:33.328Z,0.09
2022-07-25T21:10:36.733Z,0.09
2022-07-25T21:11:34.147Z,0.09
2022-07-25T21:12:34.932Z,0.16
2022-07-25T21:13:37.747Z,0.09
2022-07-25T21:14:35.750Z,0.09
2022-07-25T21:18:00.576Z,0.09
2022-07-25T21:18:58.943Z,0.09
2022-07-25T21:20:07.491Z,0.09
